Terminal Aerodrome Forecast
Issued by NWS Norman, OK

Home | Current Version | Previous Version | Text Only | Print | Product List | Glossary On
Versions: 1 2 3 4 5 6 7 8 9 10 11 12
000
FTUS44 KOUN 262332
TAFSPS
TAF
KSPS 262332Z 2700/2724 11008KT P6SM BKN150
     FM270900 13010KT 3SM -DZ BR OVC007
     FM271900 19014KT P6SM BKN025=

USA.gov is the U.S. government's official web portal to all federal, state and local government web resources and services.